createdAt,value
2019-01-03T00:00:06.742Z,933.73
2019-01-03T00:01:06.534Z,933.74
2019-01-03T00:02:06.540Z,933.74
2019-01-03T00:03:06.581Z,933.75
2019-01-03T00:04:06.538Z,933.77
2019-01-03T00:05:06.562Z,933.77
2019-01-03T00:06:06.511Z,933.82
2019-01-03T00:07:06.504Z,933.85
2019-01-03T00:08:06.496Z,933.85
2019-01-03T00:09:06.500Z,933.88
2019-01-03T00:10:06.503Z,933.90
2019-01-03T00:11:06.542Z,933.91
2019-01-03T00:12:06.540Z,933.88
2019-01-03T00:13:06.478Z,933.94
2019-01-03T00:14:06.508Z,933.93
2019-01-03T00:15:06.479Z,933.94
2019-01-03T00:16:06.479Z,933.97
2019-01-03T00:17:06.489Z,933.97
2019-01-03T00:18:06.480Z,933.99
2019-01-03T00:19:06.477Z,934.01
2019-01-03T00:20:06.455Z,934.02
2019-01-03T00:21:06.456Z,934.02
2019-01-03T00:22:06.469Z,934.02
2019-01-03T00:23:06.430Z,934.06
2019-01-03T00:24:06.444Z,934.07
2019-01-03T00:25:06.758Z,934.12
2019-01-03T00:26:06.443Z,934.12
2019-01-03T00:27:06.435Z,934.17
2019-01-03T00:28:06.449Z,934.17
2019-01-03T00:29:06.409Z,934.17
2019-01-03T00:30:06.404Z,934.18
2019-01-03T00:31:06.413Z,934.20
2019-01-03T00:32:06.423Z,934.24
2019-01-03T00:33:06.416Z,934.20
2019-01-03T00:34:06.416Z,934.20
2019-01-03T00:35:06.423Z,934.18
2019-01-03T00:36:06.386Z,934.21
2019-01-03T00:37:06.437Z,934.20
2019-01-03T00:38:06.381Z,934.21
2019-01-03T00:39:06.405Z,934.23
2019-01-03T00:40:06.384Z,934.24
2019-01-03T00:41:06.377Z,934.27
2019-01-03T00:42:06.371Z,934.25
2019-01-03T00:43:06.391Z,934.25
2019-01-03T00:44:06.353Z,934.27
2019-01-03T00:45:06.358Z,934.28
2019-01-03T00:46:06.364Z,934.25
2019-01-03T00:47:06.374Z,934.24
2019-01-03T00:48:06.354Z,934.24
2019-01-03T00:49:06.356Z,934.19
2019-01-03T00:50:06.334Z,934.20
2019-01-03T00:51:06.362Z,934.21
2019-01-03T00:52:06.347Z,934.13
2019-01-03T00:53:06.311Z,934.10
2019-01-03T00:54:06.331Z,934.07
2019-01-03T00:55:06.371Z,934.09
2019-01-03T00:56:06.324Z,934.12
2019-01-03T00:57:06.337Z,934.15
2019-01-03T00:58:06.308Z,934.14
2019-01-03T00:59:06.288Z,934.11
2019-01-03T01:00:06.316Z,934.12
2019-01-03T01:01:06.323Z,934.10
2019-01-03T01:02:06.309Z,934.14
2019-01-03T01:03:06.304Z,934.13
2019-01-03T01:04:06.281Z,934.10
2019-01-03T01:05:06.308Z,934.10
2019-01-03T01:06:06.284Z,934.13
2019-01-03T01:07:06.330Z,934.07
2019-01-03T01:08:06.321Z,934.06
2019-01-03T01:09:06.274Z,934.10
2019-01-03T01:10:06.268Z,934.10
2019-01-03T01:11:06.274Z,934.08
2019-01-03T01:12:06.266Z,934.09
2019-01-03T01:13:06.254Z,934.10
2019-01-03T01:14:06.255Z,934.08
2019-01-03T01:15:06.266Z,934.10
2019-01-03T01:16:06.291Z,934.06
2019-01-03T01:17:06.276Z,934.07
2019-01-03T01:18:06.247Z,934.07
2019-01-03T01:19:06.242Z,934.06
2019-01-03T01:20:06.240Z,934.00
2019-01-03T01:21:06.236Z,933.98
2019-01-03T01:22:06.229Z,933.91
2019-01-03T01:23:06.231Z,933.91
2019-01-03T01:24:06.219Z,933.90
2019-01-03T01:25:06.231Z,933.89
2019-01-03T01:26:06.210Z,933.87
2019-01-03T01:27:06.212Z,933.86
2019-01-03T01:28:06.205Z,933.84
2019-01-03T01:29:06.197Z,933.81
2019-01-03T01:30:06.195Z,933.82
2019-01-03T01:31:06.215Z,933.82
2019-01-03T01:32:06.184Z,933.80
2019-01-03T01:33:06.224Z,933.83
2019-01-03T01:34:06.174Z,933.79
2019-01-03T01:35:06.184Z,933.78
2019-01-03T01:36:06.164Z,933.79
2019-01-03T01:37:06.191Z,933.82
2019-01-03T01:38:06.175Z,933.79
2019-01-03T01:39:06.165Z,933.82
2019-01-03T01:40:06.172Z,933.81
2019-01-03T01:41:06.168Z,933.80
2019-01-03T01:42:06.166Z,933.78
2019-01-03T01:43:06.133Z,933.78
2019-01-03T01:44:06.160Z,933.80
2019-01-03T01:45:06.148Z,933.77
2019-01-03T01:46:06.136Z,933.75
2019-01-03T01:47:06.152Z,933.75
2019-01-03T01:48:06.128Z,933.72
2019-01-03T01:49:06.135Z,933.72
2019-01-03T01:50:06.126Z,933.71
2019-01-03T01:51:06.134Z,933.71
2019-01-03T01:52:06.106Z,933.68
2019-01-03T01:53:06.127Z,933.69
2019-01-03T01:54:06.128Z,933.72
2019-01-03T01:55:06.127Z,933.69
2019-01-03T01:56:06.104Z,933.71
2019-01-03T01:57:06.091Z,933.61
2019-01-03T01:58:06.106Z,933.60
2019-01-03T01:59:06.140Z,933.55
2019-01-03T02:00:06.081Z,933.55
2019-01-03T02:01:06.127Z,933.53
2019-01-03T02:02:06.082Z,933.51
2019-01-03T02:03:06.080Z,933.49
2019-01-03T02:04:06.075Z,933.46
2019-01-03T02:05:06.072Z,933.49
2019-01-03T02:06:06.059Z,933.46
2019-01-03T02:07:06.079Z,933.49
2019-01-03T02:08:06.073Z,933.48
2019-01-03T02:09:06.099Z,933.48
2019-01-03T02:10:06.046Z,933.49
2019-01-03T02:11:06.046Z,933.49
2019-01-03T02:12:06.044Z,933.49
2019-01-03T02:13:06.032Z,933.46
2019-01-03T02:14:06.052Z,933.44
2019-01-03T02:15:06.054Z,933.43
2019-01-03T02:16:06.032Z,933.45
2019-01-03T02:17:06.040Z,933.44
2019-01-03T02:18:06.023Z,933.42
2019-01-03T02:19:06.021Z,933.41
2019-01-03T02:20:06.015Z,933.47
2019-01-03T02:21:05.997Z,933.42
2019-01-03T02:22:05.989Z,933.38
2019-01-03T02:23:06.012Z,933.33
2019-01-03T02:24:06.011Z,933.35
2019-01-03T02:25:06.011Z,933.25
2019-01-03T02:26:06.005Z,933.24
2019-01-03T02:27:05.983Z,933.21
2019-01-03T02:28:05.983Z,933.19
2019-01-03T02:29:05.986Z,933.15
2019-01-03T02:30:05.984Z,933.12
2019-01-03T02:31:05.964Z,933.13
2019-01-03T02:32:05.980Z,933.08
2019-01-03T02:33:05.972Z,933.07
2019-01-03T02:34:05.966Z,933.06
2019-01-03T02:35:05.965Z,933.06
2019-01-03T02:36:05.962Z,933.03
2019-01-03T02:37:05.949Z,933.01
2019-01-03T02:38:05.943Z,933.00
2019-01-03T02:39:05.944Z,933.00
2019-01-03T02:40:05.944Z,932.95
2019-01-03T02:41:05.913Z,932.98
2019-01-03T02:42:05.929Z,932.97
2019-01-03T02:43:05.924Z,932.95
2019-01-03T02:44:05.897Z,932.94
2019-01-03T02:45:05.912Z,932.97
2019-01-03T02:46:05.889Z,932.92
2019-01-03T02:47:05.913Z,932.92
2019-01-03T02:48:05.899Z,932.90
2019-01-03T02:49:05.912Z,932.90
2019-01-03T02:50:05.869Z,932.93
2019-01-03T02:51:05.893Z,932.89
2019-01-03T02:52:05.890Z,932.87
2019-01-03T02:53:05.897Z,932.89
2019-01-03T02:54:05.862Z,932.84
2019-01-03T02:55:05.879Z,932.90
2019-01-03T02:56:05.930Z,932.87
2019-01-03T02:57:05.870Z,932.87
2019-01-03T02:58:05.865Z,932.85
2019-01-03T02:59:05.865Z,932.84
2019-01-03T03:00:05.858Z,932.85
2019-01-03T03:01:05.846Z,932.84
2019-01-03T03:02:05.867Z,932.82
2019-01-03T03:03:05.857Z,932.81
2019-01-03T03:04:05.831Z,932.81
2019-01-03T03:05:05.832Z,932.81
2019-01-03T03:06:05.832Z,932.81
2019-01-03T03:07:05.828Z,932.80
2019-01-03T03:08:05.818Z,932.80
2019-01-03T03:09:05.813Z,932.80
2019-01-03T03:10:05.798Z,932.79
2019-01-03T03:11:05.824Z,932.83
2019-01-03T03:12:05.812Z,932.81
2019-01-03T03:13:05.802Z,932.76
2019-01-03T03:14:05.789Z,932.76
2019-01-03T03:15:05.794Z,932.77
2019-01-03T03:16:05.798Z,932.75
2019-01-03T03:17:05.773Z,932.73
2019-01-03T03:18:05.786Z,932.72
2019-01-03T03:19:05.804Z,932.69
2019-01-03T03:20:05.807Z,932.66
2019-01-03T03:21:05.752Z,932.65
2019-01-03T03:22:05.797Z,932.64
2019-01-03T03:23:05.806Z,932.62
2019-01-03T03:24:05.755Z,932.63
2019-01-03T03:25:05.767Z,932.59
2019-01-03T03:26:05.733Z,932.58
2019-01-03T03:27:05.751Z,932.57
2019-01-03T03:28:05.734Z,932.57
2019-01-03T03:29:05.740Z,932.58
2019-01-03T03:30:05.727Z,932.55
2019-01-03T03:31:05.713Z,932.56
2019-01-03T03:32:05.732Z,932.56
2019-01-03T03:33:05.725Z,932.55
2019-01-03T03:34:05.725Z,932.49
2019-01-03T03:35:05.718Z,932.48
2019-01-03T03:36:05.963Z,932.47
2019-01-03T03:37:05.685Z,932.41
2019-01-03T03:38:05.728Z,932.40
2019-01-03T03:39:05.734Z,932.40
2019-01-03T03:40:05.756Z,932.39
2019-01-03T03:41:05.678Z,932.42
2019-01-03T03:42:05.668Z,932.40
2019-01-03T03:43:05.669Z,932.41
2019-01-03T03:44:05.681Z,932.37
2019-01-03T03:45:05.674Z,932.34
2019-01-03T03:46:05.637Z,932.30
2019-01-03T03:47:05.647Z,932.32
2019-01-03T03:48:05.690Z,932.34
2019-01-03T03:49:05.658Z,932.31
2019-01-03T03:50:05.647Z,932.31
2019-01-03T03:51:05.623Z,932.30
2019-01-03T03:52:05.643Z,932.31
2019-01-03T03:53:05.676Z,932.29
2019-01-03T03:54:05.633Z,932.26
2019-01-03T03:55:05.635Z,932.25
2019-01-03T03:56:05.624Z,932.20
2019-01-03T03:57:05.619Z,932.19
2019-01-03T03:58:05.633Z,932.17
2019-01-03T03:59:05.614Z,932.16
2019-01-03T04:00:05.598Z,932.13
2019-01-03T04:01:05.598Z,932.09
2019-01-03T04:02:05.588Z,932.08
2019-01-03T04:03:05.641Z,932.04
2019-01-03T04:04:05.597Z,932.09
2019-01-03T04:05:05.597Z,932.08
2019-01-03T04:06:05.575Z,932.08
2019-01-03T04:07:05.613Z,932.09
2019-01-03T04:08:05.580Z,932.08
2019-01-03T04:09:05.557Z,932.05
2019-01-03T04:10:05.577Z,931.99
2019-01-03T04:11:05.557Z,931.97
2019-01-03T04:12:05.545Z,932.00
2019-01-03T04:13:05.574Z,932.00
2019-01-03T04:14:05.555Z,931.94
2019-01-03T04:15:05.545Z,931.97
2019-01-03T04:16:05.544Z,931.95
2019-01-03T04:17:05.553Z,931.94
2019-01-03T04:18:05.537Z,931.89
2019-01-03T04:19:05.529Z,931.85
2019-01-03T04:20:05.524Z,931.81
2019-01-03T04:21:05.504Z,931.80
2019-01-03T04:22:05.530Z,931.83
2019-01-03T04:23:05.508Z,931.80
2019-01-03T04:24:05.485Z,931.75
2019-01-03T04:25:05.484Z,931.75
2019-01-03T04:26:05.483Z,931.77
2019-01-03T04:27:05.496Z,931.78
2019-01-03T04:28:05.484Z,931.76
2019-01-03T04:29:05.476Z,931.75
2019-01-03T04:30:05.469Z,931.70
2019-01-03T04:31:05.487Z,931.71
2019-01-03T04:32:05.470Z,931.71
2019-01-03T04:33:05.444Z,931.66
2019-01-03T04:34:05.468Z,931.67
2019-01-03T04:35:05.488Z,931.62
2019-01-03T04:36:05.453Z,931.69
2019-01-03T04:37:05.443Z,931.65
2019-01-03T04:38:05.430Z,931.64
2019-01-03T04:39:05.420Z,931.65
2019-01-03T04:40:05.418Z,931.65
2019-01-03T04:41:05.416Z,931.67
2019-01-03T04:42:05.457Z,931.69
2019-01-03T04:43:05.440Z,931.68
2019-01-03T04:44:05.406Z,931.72
2019-01-03T04:45:05.386Z,931.67
2019-01-03T04:46:05.395Z,931.72
2019-01-03T04:47:05.402Z,931.68
2019-01-03T04:48:05.399Z,931.70
2019-01-03T04:49:05.388Z,931.67
2019-01-03T04:50:05.366Z,931.69
2019-01-03T04:51:05.386Z,931.66
2019-01-03T04:52:05.386Z,931.65
2019-01-03T04:53:05.345Z,931.70
2019-01-03T04:54:05.345Z,931.70
2019-01-03T04:55:05.364Z,931.72
2019-01-03T04:56:05.328Z,931.71
2019-01-03T04:57:05.358Z,931.74
2019-01-03T04:58:05.386Z,931.74
2019-01-03T04:59:05.334Z,931.73
2019-01-03T05:00:05.385Z,931.71
2019-01-03T05:01:05.315Z,931.69
2019-01-03T05:02:05.343Z,931.70
2019-01-03T05:03:05.306Z,931.70
2019-01-03T05:04:05.331Z,931.68
2019-01-03T05:05:05.327Z,931.70
2019-01-03T05:06:05.311Z,931.67
2019-01-03T05:07:05.327Z,931.66
2019-01-03T05:08:05.287Z,931.65
2019-01-03T05:09:05.313Z,931.68
2019-01-03T05:10:05.302Z,931.64
2019-01-03T05:11:05.283Z,931.62
2019-01-03T05:12:05.273Z,931.58
2019-01-03T05:13:05.321Z,931.59
2019-01-03T05:14:05.289Z,931.54
2019-01-03T05:15:05.267Z,931.56
2019-01-03T05:16:05.263Z,931.57
2019-01-03T05:17:05.237Z,931.55
2019-01-03T05:18:05.250Z,931.60
2019-01-03T05:19:05.239Z,931.57
2019-01-03T05:20:05.252Z,931.55
2019-01-03T05:21:05.240Z,931.56
2019-01-03T05:22:05.313Z,931.50
2019-01-03T05:23:05.215Z,931.52
2019-01-03T05:24:05.229Z,931.47
2019-01-03T05:25:05.210Z,931.45
2019-01-03T05:26:05.225Z,931.45
2019-01-03T05:27:05.196Z,931.45
2019-01-03T05:28:05.213Z,931.44
2019-01-03T05:29:05.188Z,931.45
2019-01-03T05:30:05.185Z,931.46
2019-01-03T05:31:05.164Z,931.46
2019-01-03T05:32:05.199Z,931.47
2019-01-03T05:33:05.181Z,931.47
2019-01-03T05:34:05.181Z,931.44
2019-01-03T05:35:05.171Z,931.44
2019-01-03T05:36:05.152Z,931.40
2019-01-03T05:37:05.157Z,931.35
2019-01-03T05:38:05.283Z,931.32
2019-01-03T05:39:05.153Z,931.36
2019-01-03T05:40:05.152Z,931.30
2019-01-03T05:41:05.261Z,931.33
2019-01-03T05:42:05.195Z,931.29
2019-01-03T05:43:05.133Z,931.27
2019-01-03T05:44:05.095Z,931.25
2019-01-03T05:45:05.089Z,931.28
2019-01-03T05:46:05.119Z,931.21
2019-01-03T05:47:05.132Z,931.25
2019-01-03T05:48:05.100Z,931.25
2019-01-03T05:49:05.107Z,931.25
2019-01-03T05:50:05.087Z,931.24
2019-01-03T05:51:05.086Z,931.21
2019-01-03T05:52:05.098Z,931.23
2019-01-03T05:53:05.097Z,931.27
2019-01-03T05:54:05.082Z,931.28
2019-01-03T05:55:05.072Z,931.26
2019-01-03T05:56:05.067Z,931.28
2019-01-03T05:57:05.101Z,931.28
2019-01-03T05:58:05.044Z,931.25
2019-01-03T05:59:05.041Z,931.23
2019-01-03T06:00:05.022Z,931.20
2019-01-03T06:01:05.023Z,931.17
2019-01-03T06:02:05.052Z,931.23
2019-01-03T06:03:05.062Z,931.27
2019-01-03T06:04:05.036Z,931.22
2019-01-03T06:05:05.025Z,931.22
2019-01-03T06:06:05.011Z,931.17
2019-01-03T06:07:05.034Z,931.24
2019-01-03T06:08:04.977Z,931.22
2019-01-03T06:09:04.984Z,931.26
2019-01-03T06:10:04.977Z,931.19
2019-01-03T06:11:04.975Z,931.22
2019-01-03T06:12:04.983Z,931.24
2019-01-03T06:13:04.950Z,931.26
2019-01-03T06:14:04.987Z,931.21
2019-01-03T06:15:04.960Z,931.18
2019-01-03T06:16:04.958Z,931.16
2019-01-03T06:17:04.973Z,931.18
2019-01-03T06:18:04.932Z,931.14
2019-01-03T06:19:04.942Z,931.11
2019-01-03T06:20:04.932Z,931.13
2019-01-03T06:21:05.073Z,931.12
2019-01-03T06:22:04.948Z,931.15
2019-01-03T06:23:04.949Z,931.11
2019-01-03T06:24:04.913Z,931.09
2019-01-03T06:25:04.908Z,931.15
2019-01-03T06:26:04.920Z,931.14
2019-01-03T06:27:04.905Z,931.14
2019-01-03T06:28:04.885Z,931.12
2019-01-03T06:29:04.931Z,931.10
2019-01-03T06:30:04.894Z,931.13
2019-01-03T06:31:04.898Z,931.09
2019-01-03T06:32:04.882Z,931.05
2019-01-03T06:33:04.857Z,931.08
2019-01-03T06:34:04.858Z,931.07
2019-01-03T06:35:04.872Z,931.07
2019-01-03T06:36:04.856Z,931.07
2019-01-03T06:37:04.868Z,931.05
2019-01-03T06:38:04.870Z,931.05
2019-01-03T06:39:04.832Z,931.08
2019-01-03T06:40:04.849Z,931.08
2019-01-03T06:41:04.805Z,931.10
2019-01-03T06:42:04.844Z,931.08
2019-01-03T06:43:04.811Z,931.08
2019-01-03T06:44:04.798Z,931.10
2019-01-03T06:45:04.839Z,931.10
2019-01-03T06:46:04.795Z,931.13
2019-01-03T06:47:04.804Z,931.15
2019-01-03T06:48:04.788Z,931.19
2019-01-03T06:49:04.773Z,931.15
2019-01-03T06:50:04.766Z,931.19
2019-01-03T06:51:04.762Z,931.24
2019-01-03T06:52:04.773Z,931.25
2019-01-03T06:53:04.747Z,931.28
2019-01-03T06:54:04.775Z,931.30
2019-01-03T06:55:04.746Z,931.28
2019-01-03T06:56:04.756Z,931.29
2019-01-03T06:57:04.741Z,931.33
2019-01-03T06:58:04.733Z,931.32
2019-01-03T06:59:04.735Z,931.35
2019-01-03T07:00:04.714Z,931.33
2019-01-03T07:01:04.706Z,931.35
2019-01-03T07:02:04.717Z,931.37
2019-01-03T07:03:04.694Z,931.37
2019-01-03T07:04:04.723Z,931.31
2019-01-03T07:05:04.707Z,931.37
2019-01-03T07:06:04.737Z,931.40
2019-01-03T07:07:04.697Z,931.39
2019-01-03T07:08:04.709Z,931.48
2019-01-03T07:09:04.692Z,931.48
2019-01-03T07:10:04.660Z,931.43
2019-01-03T07:11:04.650Z,931.50
2019-01-03T07:12:04.665Z,931.50
2019-01-03T07:13:04.664Z,931.51
2019-01-03T07:14:04.639Z,931.48
2019-01-03T07:15:04.627Z,931.53
2019-01-03T07:16:04.677Z,931.52
2019-01-03T07:17:04.638Z,931.58
2019-01-03T07:18:04.644Z,931.58
2019-01-03T07:19:04.674Z,931.61
2019-01-03T07:20:04.617Z,931.63
2019-01-03T07:21:04.628Z,931.70
2019-01-03T07:22:04.596Z,931.71
2019-01-03T07:23:04.604Z,931.71
2019-01-03T07:24:04.616Z,931.72
2019-01-03T07:25:04.578Z,931.72
2019-01-03T07:26:04.585Z,931.78
2019-01-03T07:27:04.576Z,931.80
2019-01-03T07:28:04.560Z,931.81
2019-01-03T07:29:04.556Z,931.86
2019-01-03T07:30:04.565Z,931.87
2019-01-03T07:31:04.539Z,931.87
2019-01-03T07:32:04.600Z,931.91
2019-01-03T07:33:04.540Z,931.93
2019-01-03T07:34:04.515Z,931.92
2019-01-03T07:35:04.511Z,931.96
2019-01-03T07:36:04.518Z,931.97
2019-01-03T07:37:04.511Z,932.01
2019-01-03T07:38:04.520Z,932.02
2019-01-03T07:39:04.544Z,932.03
2019-01-03T07:40:04.517Z,932.04
2019-01-03T07:41:04.477Z,932.04
2019-01-03T07:42:04.489Z,932.07
2019-01-03T07:43:04.496Z,932.05
2019-01-03T07:44:04.490Z,932.09
2019-01-03T07:45:04.468Z,932.05
2019-01-03T07:46:04.475Z,932.05
2019-01-03T07:47:04.473Z,932.11
2019-01-03T07:48:05.652Z,932.02
2019-01-03T07:49:04.440Z,932.10
2019-01-03T07:50:04.445Z,932.12
2019-01-03T07:51:04.448Z,932.14
2019-01-03T07:52:04.431Z,932.15
2019-01-03T07:53:04.435Z,932.19
2019-01-03T07:54:04.410Z,932.21
2019-01-03T07:55:04.411Z,932.16
2019-01-03T07:56:04.419Z,932.17
2019-01-03T07:57:04.398Z,932.20
2019-01-03T07:58:04.398Z,932.21
2019-01-03T07:59:04.388Z,932.21
2019-01-03T08:00:04.393Z,932.21
2019-01-03T08:01:04.373Z,932.20
2019-01-03T08:02:04.425Z,932.22
2019-01-03T08:03:04.369Z,932.19
2019-01-03T08:04:04.369Z,932.23
2019-01-03T08:05:04.346Z,932.24
2019-01-03T08:06:04.381Z,932.26
2019-01-03T08:07:04.364Z,932.31
2019-01-03T08:08:04.332Z,932.28
2019-01-03T08:09:04.346Z,932.29
2019-01-03T08:10:04.350Z,932.29
2019-01-03T08:11:04.339Z,932.32
2019-01-03T08:12:04.312Z,932.35
2019-01-03T08:13:04.309Z,932.33
2019-01-03T08:14:04.332Z,932.34
2019-01-03T08:15:04.311Z,932.31
2019-01-03T08:16:04.306Z,932.29
2019-01-03T08:17:04.290Z,932.36
2019-01-03T08:18:04.293Z,932.35
2019-01-03T08:19:04.301Z,932.34
2019-01-03T08:20:04.287Z,932.32
2019-01-03T08:21:04.273Z,932.33
2019-01-03T08:22:04.302Z,932.38
2019-01-03T08:23:04.244Z,932.41
2019-01-03T08:24:04.266Z,932.41
2019-01-03T08:25:04.253Z,932.48
2019-01-03T08:26:04.421Z,932.49
2019-01-03T08:27:04.249Z,932.48
2019-01-03T08:28:04.251Z,932.48
2019-01-03T08:29:04.216Z,932.48
2019-01-03T08:30:04.224Z,932.51
2019-01-03T08:31:04.219Z,932.47
2019-01-03T08:32:04.206Z,932.49
2019-01-03T08:33:04.197Z,932.47
2019-01-03T08:34:04.213Z,932.51
2019-01-03T08:35:04.238Z,932.53
2019-01-03T08:36:04.196Z,932.47
2019-01-03T08:37:04.173Z,932.52
2019-01-03T08:38:04.216Z,932.50
2019-01-03T08:39:04.189Z,932.53
2019-01-03T08:40:04.189Z,932.57
2019-01-03T08:41:04.167Z,932.60
2019-01-03T08:42:04.164Z,932.60
2019-01-03T08:43:04.160Z,932.62
2019-01-03T08:44:04.130Z,932.64
2019-01-03T08:45:04.142Z,932.61
2019-01-03T08:46:04.136Z,932.61
2019-01-03T08:47:04.157Z,932.65
2019-01-03T08:48:04.151Z,932.68
2019-01-03T08:49:04.138Z,932.68
2019-01-03T08:50:04.095Z,932.69
2019-01-03T08:51:04.127Z,932.70
2019-01-03T08:52:04.100Z,932.74
2019-01-03T08:53:04.107Z,932.69
2019-01-03T08:54:04.106Z,932.70
2019-01-03T08:55:04.112Z,932.71
2019-01-03T08:56:04.089Z,932.69
2019-01-03T08:57:04.090Z,932.72
2019-01-03T08:58:04.053Z,932.73
2019-01-03T08:59:04.098Z,932.69
2019-01-03T09:00:04.057Z,932.71
2019-01-03T09:01:04.045Z,932.69
2019-01-03T09:02:04.040Z,932.78
2019-01-03T09:03:04.037Z,932.76
2019-01-03T09:04:04.042Z,932.76
2019-01-03T09:05:04.030Z,932.78
2019-01-03T09:06:04.019Z,932.77
2019-01-03T09:07:04.025Z,932.79
2019-01-03T09:08:04.047Z,932.82
2019-01-03T09:09:04.169Z,932.80
2019-01-03T09:10:03.994Z,932.85
2019-01-03T09:11:03.992Z,932.86
2019-01-03T09:12:03.976Z,932.84
2019-01-03T09:13:04.003Z,932.86
2019-01-03T09:14:03.977Z,932.86
2019-01-03T09:15:03.983Z,932.85
2019-01-03T09:16:03.963Z,932.82
2019-01-03T09:17:03.958Z,932.78
2019-01-03T09:18:09.452Z,932.77
2019-01-03T09:19:03.974Z,932.79
2019-01-03T09:20:03.937Z,932.81
2019-01-03T09:21:03.941Z,932.83
2019-01-03T09:22:03.958Z,932.80
2019-01-03T09:23:03.954Z,932.82
2019-01-03T09:24:03.934Z,932.82
2019-01-03T09:25:03.944Z,932.87
2019-01-03T09:26:03.924Z,932.85
2019-01-03T09:27:03.930Z,932.88
2019-01-03T09:28:03.882Z,932.90
2019-01-03T09:29:03.897Z,932.91
2019-01-03T09:30:03.880Z,932.88
2019-01-03T09:31:03.883Z,932.88
2019-01-03T09:32:03.859Z,932.88
2019-01-03T09:33:03.921Z,932.87
2019-01-03T09:34:03.854Z,932.87
2019-01-03T09:35:03.892Z,932.82
2019-01-03T09:36:03.857Z,932.87
2019-01-03T09:37:03.852Z,932.88
2019-01-03T09:38:03.863Z,932.93
2019-01-03T09:39:03.862Z,932.92
2019-01-03T09:40:03.838Z,932.90
2019-01-03T09:41:03.881Z,932.91
2019-01-03T09:42:03.843Z,932.90
2019-01-03T09:43:03.846Z,932.91
2019-01-03T09:44:03.812Z,932.91
2019-01-03T09:45:03.816Z,932.91
2019-01-03T09:46:03.800Z,932.93
2019-01-03T09:47:03.813Z,932.92
2019-01-03T09:48:03.803Z,932.92
2019-01-03T09:49:03.840Z,932.96
2019-01-03T09:50:03.815Z,932.96
2019-01-03T09:51:03.775Z,932.98
2019-01-03T09:52:03.786Z,933.01
2019-01-03T09:53:03.781Z,932.97
2019-01-03T09:54:03.804Z,933.00
2019-01-03T09:55:03.772Z,933.04
2019-01-03T09:56:03.772Z,933.02
2019-01-03T09:57:03.759Z,933.02
2019-01-03T09:58:03.757Z,933.06
2019-01-03T09:59:03.724Z,933.02
2019-01-03T10:00:03.754Z,933.02
2019-01-03T10:01:03.736Z,933.06
2019-01-03T10:02:03.716Z,933.08
2019-01-03T10:03:03.718Z,932.99
2019-01-03T10:04:03.707Z,933.00
2019-01-03T10:05:03.714Z,933.03
2019-01-03T10:06:03.718Z,932.95
2019-01-03T10:07:03.696Z,932.93
2019-01-03T10:08:03.679Z,932.95
2019-01-03T10:09:03.696Z,932.94
2019-01-03T10:10:03.718Z,933.03
2019-01-03T10:11:03.679Z,933.03
2019-01-03T10:12:03.674Z,933.06
2019-01-03T10:13:03.680Z,933.03
2019-01-03T10:14:03.720Z,933.01
2019-01-03T10:15:03.695Z,933.09
2019-01-03T10:16:03.753Z,933.02
2019-01-03T10:17:03.640Z,933.08
2019-01-03T10:18:03.660Z,933.01
2019-01-03T10:19:03.682Z,933.05
2019-01-03T10:20:03.640Z,933.04
2019-01-03T10:21:03.632Z,933.06
2019-01-03T10:22:03.667Z,933.09
2019-01-03T10:23:03.650Z,933.05
2019-01-03T10:24:03.615Z,933.09
2019-01-03T10:25:03.609Z,933.00
2019-01-03T10:26:04.536Z,933.05
2019-01-03T10:27:03.593Z,933.02
2019-01-03T10:28:03.595Z,933.02
2019-01-03T10:29:03.591Z,933.04
2019-01-03T10:30:03.579Z,932.97
2019-01-03T10:31:03.568Z,932.98
2019-01-03T10:32:03.568Z,933.00
2019-01-03T10:33:03.579Z,933.02
2019-01-03T10:34:03.557Z,933.02
2019-01-03T10:35:03.586Z,933.03
2019-01-03T10:36:03.541Z,933.06
2019-01-03T10:37:03.570Z,933.11
2019-01-03T10:38:03.544Z,933.08
2019-01-03T10:39:03.549Z,933.06
2019-01-03T10:40:03.526Z,933.08
2019-01-03T10:41:03.516Z,933.02
2019-01-03T10:42:03.490Z,933.03
2019-01-03T10:43:03.688Z,933.00
2019-01-03T10:44:03.511Z,933.00
2019-01-03T10:45:03.552Z,932.99
2019-01-03T10:46:03.486Z,933.04
2019-01-03T10:47:03.509Z,932.97
2019-01-03T10:48:03.502Z,933.00
2019-01-03T10:49:04.943Z,933.01
2019-01-03T10:50:03.498Z,932.97
2019-01-03T10:51:03.452Z,932.99
2019-01-03T10:52:03.444Z,933.06
2019-01-03T10:53:03.442Z,933.03
2019-01-03T10:54:03.492Z,933.03
2019-01-03T10:55:03.457Z,933.00
2019-01-03T10:56:03.444Z,933.02
2019-01-03T10:57:03.450Z,933.02
2019-01-03T10:58:03.444Z,932.98
2019-01-03T10:59:03.424Z,932.99
2019-01-03T11:00:03.413Z,932.98
2019-01-03T11:01:03.459Z,932.99
2019-01-03T11:02:03.430Z,932.95
2019-01-03T11:03:03.434Z,932.94
2019-01-03T11:04:03.442Z,932.94
2019-01-03T11:05:03.408Z,932.85
2019-01-03T11:06:03.402Z,932.88
2019-01-03T11:07:03.401Z,932.88
2019-01-03T11:08:03.407Z,932.90
2019-01-03T11:09:03.442Z,932.84
2019-01-03T11:10:03.380Z,932.87
2019-01-03T11:11:03.396Z,932.90
2019-01-03T11:12:03.364Z,932.87
2019-01-03T11:13:03.366Z,932.89
2019-01-03T11:14:03.382Z,932.88
2019-01-03T11:15:03.349Z,932.90
2019-01-03T11:16:03.345Z,932.88
2019-01-03T11:17:03.372Z,932.86
2019-01-03T11:18:03.369Z,932.86
2019-01-03T11:19:03.339Z,932.87
2019-01-03T11:20:03.339Z,932.81
2019-01-03T11:21:03.343Z,932.84
2019-01-03T11:22:03.354Z,932.85
2019-01-03T11:23:03.350Z,932.85
2019-01-03T11:24:03.331Z,932.88
2019-01-03T11:25:03.358Z,932.84
2019-01-03T11:26:03.325Z,932.82
2019-01-03T11:27:03.328Z,932.81
2019-01-03T11:28:03.313Z,932.78
2019-01-03T11:29:03.345Z,932.72
2019-01-03T11:30:03.302Z,932.75
2019-01-03T11:31:03.288Z,932.78
2019-01-03T11:32:03.306Z,932.74
2019-01-03T11:33:03.312Z,932.73
2019-01-03T11:34:03.300Z,932.75
2019-01-03T11:35:03.277Z,932.73
2019-01-03T11:36:03.283Z,932.73
2019-01-03T11:37:03.283Z,932.66
2019-01-03T11:38:03.284Z,932.74
2019-01-03T11:39:03.287Z,932.70
2019-01-03T11:40:03.279Z,932.79
2019-01-03T11:41:03.260Z,932.67
2019-01-03T11:42:03.282Z,932.77
2019-01-03T11:43:03.253Z,932.75
2019-01-03T11:44:03.280Z,932.73
2019-01-03T11:45:03.268Z,932.67
2019-01-03T11:46:03.230Z,932.75
2019-01-03T11:47:03.237Z,932.68
2019-01-03T11:48:03.249Z,932.65
2019-01-03T11:49:03.235Z,932.65
2019-01-03T11:50:03.260Z,932.66
2019-01-03T11:51:03.240Z,932.69
2019-01-03T11:52:03.222Z,932.73
2019-01-03T11:53:03.246Z,932.73
2019-01-03T11:54:03.227Z,932.72
2019-01-03T11:55:03.207Z,932.68
2019-01-03T11:56:03.229Z,932.69
2019-01-03T11:57:03.223Z,932.69
2019-01-03T11:58:03.278Z,932.68
2019-01-03T11:59:03.210Z,932.65
2019-01-03T12:00:03.232Z,932.66
2019-01-03T12:01:03.217Z,932.66
2019-01-03T12:02:03.200Z,932.66
2019-01-03T12:03:03.221Z,932.69
2019-01-03T12:04:03.227Z,932.64
2019-01-03T12:05:03.214Z,932.73
2019-01-03T12:06:03.201Z,932.78
2019-01-03T12:07:03.201Z,932.72
2019-01-03T12:08:03.214Z,932.78
2019-01-03T12:09:03.235Z,932.73
2019-01-03T12:10:03.192Z,932.75
2019-01-03T12:11:03.216Z,932.70
2019-01-03T12:12:03.216Z,932.71
2019-01-03T12:13:03.199Z,932.69
2019-01-03T12:14:03.197Z,932.74
2019-01-03T12:15:03.171Z,932.75
2019-01-03T12:16:03.181Z,932.74
2019-01-03T12:17:03.207Z,932.78
2019-01-03T12:18:03.205Z,932.74
2019-01-03T12:19:03.183Z,932.73
2019-01-03T12:20:03.196Z,932.70
2019-01-03T12:21:03.191Z,932.76
2019-01-03T12:22:03.178Z,932.71
2019-01-03T12:23:03.200Z,932.72
2019-01-03T12:24:03.177Z,932.68
2019-01-03T12:25:03.187Z,932.69
2019-01-03T12:26:03.183Z,932.73
2019-01-03T12:27:03.181Z,932.77
2019-01-03T12:28:03.183Z,932.75